createdAt,value
2022-08-12T12:11:17.271Z,70.07
2022-08-12T12:12:17.206Z,68.01
2022-08-12T12:13:23.001Z,68.73
2022-08-12T12:14:17.784Z,73.75
2022-08-12T12:15:25.227Z,71.30
2022-08-12T12:16:17.216Z,71.09
2022-08-12T12:17:17.351Z,71.73
2022-08-12T12:18:17.596Z,70.60
2022-08-12T12:19:17.224Z,71.88
2022-08-12T12:20:17.312Z,73.89
2022-08-12T12:21:17.282Z,73.51
2022-08-12T12:22:23.657Z,76.67
2022-08-12T12:23:28.977Z,74.62
2022-08-12T12:24:21.613Z,77.87
2022-08-12T12:25:19.871Z,72.94
2022-08-12T12:26:35.579Z,72.82
2022-08-12T12:27:18.229Z,72.89
2022-08-12T12:28:36.931Z,73.42
2022-08-12T12:30:13.823Z,73.31
2022-08-12T12:30:25.594Z,74.91
2022-08-12T12:32:10.932Z,74.79
2022-08-12T12:32:18.643Z,74.45
2022-08-12T12:33:18.036Z,75.96
2022-08-12T12:34:30.326Z,77.69
2022-08-12T12:36:06.303Z,78.74
2022-08-12T12:36:24.170Z,75.56
2022-08-12T12:37:27.032Z,82.05
2022-08-12T12:38:17.610Z,77.59
2022-08-12T12:39:17.643Z,75.91
2022-08-12T12:40:17.500Z,79.97
2022-08-12T12:41:17.425Z,85.48
2022-08-12T12:42:42.665Z,77.88
2022-08-12T12:43:17.382Z,76.20
2022-08-12T12:44:30.302Z,81.94
2022-08-12T12:45:19.676Z,79.53
2022-08-12T12:46:17.422Z,77.40
2022-08-12T12:47:28.695Z,79.89
2022-08-12T12:48:17.497Z,81.27
2022-08-12T12:49:17.482Z,78.38
2022-08-12T12:50:35.644Z,80.81
2022-08-12T12:51:49.451Z,82.56
2022-08-12T12:52:18.797Z,78.62
2022-08-12T12:54:05.915Z,76.22
2022-08-12T12:54:18.887Z,76.22
2022-08-12T12:55:17.491Z,77.82
2022-08-12T12:56:17.408Z,75.47
2022-08-12T12:57:17.396Z,74.72
2022-08-12T12:58:17.379Z,73.60
2022-08-12T12:59:55.415Z,74.33
2022-08-12T13:00:17.838Z,77.30
2022-08-12T13:01:27.818Z,77.58
2022-08-12T13:02:42.235Z,79.68
2022-08-12T13:03:20.572Z,77.54
2022-08-12T13:04:17.817Z,78.59
2022-08-12T13:05:19.258Z,81.63
2022-08-12T13:06:19.010Z,78.32
2022-08-12T13:07:20.488Z,77.85
2022-08-12T13:08:17.609Z,77.23
2022-08-12T13:09:22.281Z,78.55
2022-08-12T13:10:17.585Z,84.14
2022-08-12T13:11:17.556Z,81.46
2022-08-12T13:12:22.960Z,79.94
2022-08-12T13:14:06.885Z,80.44
2022-08-12T13:14:30.839Z,77.78
2022-08-12T13:15:43.592Z,79.49
2022-08-12T13:16:20.833Z,80.15
2022-08-12T13:17:20.265Z,78.89
2022-08-12T13:18:17.817Z,81.35
2022-08-12T13:19:25.394Z,78.96
2022-08-12T13:20:38.284Z,81.24
2022-08-12T13:21:36.421Z,79.46
2022-08-12T13:22:21.009Z,81.90
2022-08-12T13:23:47.990Z,78.37
2022-08-12T13:24:21.855Z,80.12
2022-08-12T13:25:20.268Z,79.32
2022-08-12T13:26:19.096Z,78.02
2022-08-12T13:27:19.809Z,83.03
2022-08-12T13:28:31.707Z,82.14
2022-08-12T13:29:23.622Z,82.05
2022-08-12T13:30:23.720Z,85.34
2022-08-12T13:31:22.712Z,84.23
2022-08-12T13:32:30.955Z,81.02
2022-08-12T13:33:19.664Z,81.80
2022-08-12T13:34:33.947Z,82.83
2022-08-12T13:35:33.402Z,81.39
2022-08-12T13:36:19.927Z,78.65
2022-08-12T13:37:20.507Z,83.56
2022-08-12T13:38:35.247Z,83.34
2022-08-12T13:39:32.028Z,79.57
2022-08-12T13:40:17.768Z,80.15
2022-08-12T13:41:18.184Z,83.10
2022-08-12T13:42:17.820Z,80.83
2022-08-12T13:43:40.260Z,78.91
2022-08-12T13:44:17.903Z,79.62
2022-08-12T13:45:17.806Z,79.90
2022-08-12T13:46:17.748Z,83.82
2022-08-12T13:47:19.836Z,83.77
2022-08-12T13:48:19.821Z,82.22
2022-08-12T13:49:55.017Z,80.36
2022-08-12T13:50:17.715Z,81.70
2022-08-12T13:51:21.024Z,83.70
2022-08-12T13:52:17.890Z,79.33
2022-08-12T13:53:23.689Z,85.69
2022-08-12T13:54:18.415Z,80.66
2022-08-12T13:55:18.010Z,81.26
2022-08-12T13:56:17.882Z,78.75
2022-08-12T13:57:17.896Z,78.99
2022-08-12T13:58:17.901Z,84.86
2022-08-12T13:59:18.286Z,84.84
2022-08-12T14:00:17.891Z,84.47
2022-08-12T14:01:17.933Z,83.08
2022-08-12T14:02:17.961Z,83.03
2022-08-12T14:03:17.995Z,80.38
2022-08-12T14:04:18.562Z,83.70
2022-08-12T14:05:37.839Z,82.97
2022-08-12T14:06:17.809Z,79.18
2022-08-12T14:07:17.869Z,78.72
2022-08-12T14:08:21.383Z,76.97
2022-08-12T14:09:19.848Z,77.85
2022-08-12T14:10:17.922Z,77.03
2022-08-12T14:11:17.924Z,80.82
2022-08-12T14:12:17.936Z,77.86
2022-08-12T14:14:04.838Z,78.64
2022-08-12T14:14:17.949Z,76.86
2022-08-12T14:15:17.937Z,78.77
2022-08-12T14:16:46.760Z,78.04
2022-08-12T14:17:19.833Z,77.40
2022-08-12T14:18:18.429Z,77.27
2022-08-12T14:19:25.581Z,87.48
2022-08-12T14:20:17.990Z,78.55
2022-08-12T14:21:18.210Z,79.16
2022-08-12T14:22:17.994Z,81.77
2022-08-12T14:24:04.925Z,81.16
2022-08-12T14:24:18.322Z,80.12
2022-08-12T14:25:18.087Z,79.47
2022-08-12T14:26:19.993Z,81.74
